Time;durP1;ratioP1;P1;durP2;ratioP2;P2;SDS_P1;SDS_P2;PMS_P1;PMS_P2;Temp;Humidity;BMP_temperature;BMP_pressure;BME280_temperature;BME280_humidity;BME280_pressure;Samples;Min_cycle;Max_cycle;Signal;HPM_P1;HPM_P2
2022/12/03 00:00:27;;;;;;;37.43;20.50;;;;;;;6.69;100.00;95334.28;5026805;28;20210;-81
2022/12/03 00:02:54;;;;;;;36.83;19.27;;;;;;;6.63;100.00;95339.34;5025329;28;20218;-82
2022/12/03 00:05:21;;;;;;;33.47;18.73;;;;;;;6.60;100.00;95337.91;5036904;28;20209;-82
2022/12/03 00:07:48;;;;;;;37.77;18.63;;;;;;;6.54;100.00;95346.34;5032470;28;20242;-82
2022/12/03 00:10:16;;;;;;;30.00;18.30;;;;;;;6.49;100.00;95350.44;5024555;28;20257;-76
2022/12/03 00:12:43;;;;;;;27.80;16.73;;;;;;;6.49;100.00;95351.25;5023997;28;20203;-77
2022/12/03 00:15:11;;;;;;;26.93;16.47;;;;;;;6.34;100.00;95352.19;5026267;28;20211;-76
2022/12/03 00:17:38;;;;;;;26.97;16.73;;;;;;;6.35;100.00;95353.81;5023196;28;20209;-79
2022/12/03 00:20:07;;;;;;;26.50;16.20;;;;;;;6.12;100.00;95351.22;5025803;28;20199;-77
2022/12/03 00:22:34;;;;;;;29.70;16.97;;;;;;;5.94;100.00;95367.03;5025980;28;20660;-75
2022/12/03 00:25:00;;;;;;;28.80;16.83;;;;;;;5.73;100.00;95357.28;5025634;28;20671;-76
2022/12/03 00:27:29;;;;;;;27.77;16.40;;;;;;;5.80;100.00;95369.50;5023073;28;20258;-75
2022/12/03 00:29:55;;;;;;;29.23;16.60;;;;;;;5.89;100.00;95358.97;5028288;28;20211;-82
2022/12/03 00:32:22;;;;;;;30.77;17.17;;;;;;;5.99;100.00;95364.72;5039612;28;20237;-82
2022/12/03 00:34:49;;;;;;;30.43;17.80;;;;;;;6.07;100.00;95361.25;5037867;28;20205;-82
2022/12/03 00:37:16;;;;;;;29.23;15.97;;;;;;;6.21;100.00;95355.34;5031177;28;20720;-82
2022/12/03 00:39:43;;;;;;;29.53;15.50;;;;;;;6.20;100.00;95356.34;5033339;28;20205;-83
2022/12/03 00:42:10;;;;;;;24.53;14.47;;;;;;;6.38;100.00;95363.78;5032922;28;20206;-83
2022/12/03 00:44:38;;;;;;;27.77;14.67;;;;;;;6.40;100.00;95365.22;5035548;28;20217;-82
2022/12/03 00:47:05;;;;;;;22.40;13.83;;;;;;;6.39;100.00;95363.59;5037475;28;20260;-82
2022/12/03 00:49:31;;;;;;;23.43;13.67;;;;;;;6.40;100.00;95378.13;5031730;28;20202;-81
2022/12/03 00:51:58;;;;;;;21.03;12.63;;;;;;;6.42;100.00;95378.72;5030592;28;20201;-81
2022/12/03 00:54:25;;;;;;;22.20;13.40;;;;;;;6.45;100.00;95380.97;5028986;28;20205;-75
2022/12/03 00:56:52;;;;;;;19.80;12.83;;;;;;;6.51;100.00;95380.28;5026629;28;20579;-82
2022/12/03 00:59:18;;;;;;;22.40;13.13;;;;;;;6.50;100.00;95385.59;5029110;28;20202;-81
2022/12/03 01:01:47;;;;;;;21.47;13.47;;;;;;;6.17;100.00;95379.91;5035925;28;20201;-80
2022/12/03 01:04:13;;;;;;;23.70;13.20;;;;;;;5.70;100.00;95383.41;5037815;28;20588;-81
2022/12/03 01:06:40;;;;;;;23.07;13.50;;;;;;;5.71;100.00;95386.78;5027532;28;20201;-75
2022/12/03 01:09:07;;;;;;;23.63;13.17;;;;;;;5.84;100.00;95393.94;5025464;28;20248;-75
2022/12/03 01:11:40;;;;;;;22.30;12.93;;;;;;;5.96;100.00;95395.22;5029017;28;20209;-74
2022/12/03 01:14:08;;;;;;;24.03;13.37;;;;;;;6.09;100.00;95393.66;5024763;28;20286;-74
2022/12/03 01:16:35;;;;;;;23.90;13.90;;;;;;;6.15;100.00;95392.97;5025543;28;20213;-76
2022/12/03 01:19:06;;;;;;;20.93;12.80;;;;;;;6.20;100.00;95398.41;5025198;28;20213;-75
2022/12/03 01:21:33;;;;;;;25.43;14.43;;;;;;;6.24;100.00;95402.25;5028529;28;20190;-75
2022/12/03 01:24:00;;;;;;;22.37;12.90;;;;;;;6.16;100.00;95401.53;5025791;28;20205;-75
2022/12/03 01:26:26;;;;;;;23.93;13.97;;;;;;;5.96;100.00;95398.59;5026627;28;20204;-74
2022/12/03 01:28:53;;;;;;;25.67;14.10;;;;;;;5.80;100.00;95405.59;5027617;28;20240;-74
2022/12/03 01:34:06;;;;;;;25.73;15.10;;;;;;;5.88;100.00;95393.50;5024117;28;20282;-74
2022/12/03 01:36:34;;;;;;;32.87;15.43;;;;;;;6.00;100.00;95399.84;5024437;28;20251;-74
2022/12/03 01:39:01;;;;;;;25.63;14.40;;;;;;;6.07;100.00;95408.50;5026897;28;20201;-74
2022/12/03 01:41:29;;;;;;;25.73;14.33;;;;;;;6.09;100.00;95403.19;5041112;28;20216;-81
2022/12/03 01:43:57;;;;;;;25.73;14.93;;;;;;;6.12;100.00;95401.06;5035736;28;20217;-82
2022/12/03 01:46:30;;;;;;;27.33;15.70;;;;;;;6.24;100.00;95399.69;5036124;28;20206;-81
2022/12/03 01:48:57;;;;;;;26.77;15.17;;;;;;;6.22;100.00;95404.22;5030565;28;20711;-81
2022/12/03 01:51:25;;;;;;;26.43;15.33;;;;;;;6.29;100.00;95401.75;5035863;28;20202;-80
2022/12/03 01:53:52;;;;;;;24.57;15.43;;;;;;;6.35;100.00;95398.47;5034528;28;20198;-83
2022/12/03 01:56:19;;;;;;;27.17;15.17;;;;;;;6.37;100.00;95398.31;5031054;28;20711;-82
2022/12/03 01:58:47;;;;;;;25.40;15.03;;;;;;;6.35;100.00;95392.53;5035739;28;20647;-82
2022/12/03 02:01:16;;;;;;;27.77;16.03;;;;;;;6.30;100.00;95387.88;5038495;28;20202;-82
2022/12/03 02:03:43;;;;;;;25.57;14.83;;;;;;;6.35;100.00;95387.38;5031747;28;20212;-84
2022/12/03 02:06:16;;;;;;;25.00;14.97;;;;;;;6.38;100.00;95390.38;5036311;28;20590;-82
2022/12/03 02:08:45;;;;;;;28.97;15.90;;;;;;;6.44;100.00;95397.44;5039688;28;20217;-82
2022/12/03 02:11:20;;;;;;;24.20;13.97;;;;;;;6.33;100.00;95386.72;5041491;28;20229;-81
2022/12/03 02:13:49;;;;;;;24.70;14.90;;;;;;;6.36;100.00;95397.50;5033222;28;20194;-82
2022/12/03 02:16:16;;;;;;;25.00;14.27;;;;;;;6.35;100.00;95392.53;5031207;28;20205;-83
2022/12/03 02:18:43;;;;;;;26.17;14.97;;;;;;;6.38;100.00;95398.13;5037566;28;20196;-84
2022/12/03 02:21:18;;;;;;;25.77;15.13;;;;;;;6.44;100.00;95397.44;5037396;28;20205;-83
2022/12/03 02:23:54;;;;;;;28.77;15.73;;;;;;;6.40;100.00;95393.59;5035898;28;20205;-83
2022/12/03 02:26:22;;;;;;;27.30;15.27;;;;;;;6.43;100.00;95388.09;5036564;28;20194;-84
2022/12/03 02:28:49;;;;;;;28.53;15.57;;;;;;;6.37;100.00;95382.81;5031563;28;20665;-83
2022/12/03 02:31:16;;;;;;;27.87;15.57;;;;;;;6.33;100.00;95394.44;5030134;28;20592;-76
2022/12/03 02:33:43;;;;;;;26.33;14.97;;;;;;;6.34;100.00;95391.72;5025501;28;20234;-75
2022/12/03 02:36:11;;;;;;;23.50;15.00;;;;;;;6.41;100.00;95389.22;5025011;28;20205;-76
2022/12/03 02:38:38;;;;;;;24.60;14.60;;;;;;;6.48;100.00;95383.22;5027699;28;20194;-76
2022/12/03 02:41:08;;;;;;;27.97;14.63;;;;;;;6.51;100.00;95387.22;5026322;28;20240;-75
2022/12/03 02:43:36;;;;;;;24.70;14.67;;;;;;;6.47;100.00;95396.28;5023186;28;20199;-76
2022/12/03 02:46:05;;;;;;;23.97;13.77;;;;;;;6.43;100.00;95395.84;5023780;28;20210;-75
2022/12/03 02:48:35;;;;;;;24.87;13.70;;;;;;;6.42;100.00;95396.00;5027568;28;20781;-75
2022/12/03 02:51:05;;;;;;;24.33;14.03;;;;;;;6.46;100.00;95392.91;5026321;28;20198;-76
2022/12/03 02:53:37;;;;;;;21.30;13.33;;;;;;;6.50;100.00;95394.16;5024006;28;20209;-77
2022/12/03 02:56:05;;;;;;;22.37;13.93;;;;;;;6.48;100.00;95392.72;5024394;28;20586;-76
2022/12/03 02:58:33;;;;;;;22.50;13.60;;;;;;;6.42;100.00;95385.66;5025756;28;20210;-75
2022/12/03 03:01:04;;;;;;;24.53;13.80;;;;;;;6.44;100.00;95381.94;5026063;28;20211;-77
2022/12/03 03:03:32;;;;;;;22.43;14.03;;;;;;;6.49;100.00;95391.75;5024652;28;20657;-77
2022/12/03 03:06:02;;;;;;;28.80;14.17;;;;;;;6.47;100.00;95391.91;5024222;28;20334;-76
2022/12/03 03:08:30;;;;;;;24.43;13.67;;;;;;;6.40;100.00;95377.31;5025650;28;20253;-76
2022/12/03 03:10:59;;;;;;;19.90;12.47;;;;;;;6.41;100.00;95392.59;5024413;28;20210;-76
2022/12/03 03:13:27;;;;;;;23.03;13.67;;;;;;;6.40;100.00;95391.03;5027191;28;20272;-77
2022/12/03 03:15:54;;;;;;;21.67;13.33;;;;;;;6.39;100.00;95379.09;5025524;28;20214;-77
2022/12/03 03:18:22;;;;;;;21.57;13.17;;;;;;;6.43;100.00;95384.72;5025225;28;20197;-76
2022/12/03 03:20:49;;;;;;;22.90;13.53;;;;;;;6.41;100.00;95381.47;5022750;28;20207;-76
2022/12/03 03:23:18;;;;;;;24.00;14.73;;;;;;;6.48;100.00;95379.81;5023369;28;20202;-76
2022/12/03 03:25:47;;;;;;;21.33;13.37;;;;;;;6.56;100.00;95377.16;5024542;28;20206;-76
2022/12/03 03:28:15;;;;;;;23.00;13.43;;;;;;;6.62;100.00;95377.25;5034642;28;20225;-81
2022/12/03 03:30:43;;;;;;;23.57;14.50;;;;;;;6.63;100.00;95380.66;5030138;28;20202;-81
2022/12/03 03:33:12;;;;;;;22.20;13.47;;;;;;;6.60;100.00;95376.66;5028358;28;20235;-76
2022/12/03 03:35:40;;;;;;;24.30;13.47;;;;;;;6.63;100.00;95384.03;5025041;28;20210;-76
2022/12/03 03:38:09;;;;;;;23.87;14.43;;;;;;;6.56;100.00;95385.72;5025678;28;20211;-76
2022/12/03 03:40:37;;;;;;;23.83;13.13;;;;;;;6.47;100.00;95385.94;5020388;28;20207;-76
2022/12/03 03:43:05;;;;;;;22.20;13.97;;;;;;;6.36;100.00;95378.63;5022203;28;20202;-77
2022/12/03 03:45:32;;;;;;;22.07;13.67;;;;;;;6.26;100.00;95395.16;5025646;28;20216;-76
2022/12/03 03:48:01;;;;;;;22.47;13.60;;;;;;;6.29;100.00;95397.38;5024754;28;20210;-77
2022/12/03 03:50:30;;;;;;;23.97;13.37;;;;;;;6.24;100.00;95396.28;5021022;28;20205;-76
2022/12/03 03:53:00;;;;;;;21.80;12.43;;;;;;;6.25;100.00;95400.50;5021201;28;20206;-76
2022/12/03 03:55:28;;;;;;;23.37;12.80;;;;;;;6.32;100.00;95403.97;5023822;28;20292;-75
2022/12/03 03:57:55;;;;;;;22.47;13.27;;;;;;;6.26;100.00;95395.16;5025251;28;20210;-76
2022/12/03 04:00:22;;;;;;;21.33;13.10;;;;;;;6.27;100.00;95401.13;5019976;28;20201;-81
2022/12/03 04:02:48;;;;;;;22.03;13.17;;;;;;;6.29;100.00;95387.06;5030704;28;20205;-82
2022/12/03 04:05:18;;;;;;;21.47;13.17;;;;;;;6.32;100.00;95392.88;5030288;28;20657;-81
2022/12/03 04:07:45;;;;;;;21.53;13.47;;;;;;;6.32;100.00;95390.28;5027409;28;20201;-81
2022/12/03 04:12:59;;;;;;;19.37;12.40;;;;;;;6.28;100.00;95407.88;5026026;28;20320;-79
2022/12/03 04:15:26;;;;;;;21.40;13.30;;;;;;;6.24;100.00;95412.59;5029902;28;20209;-79
2022/12/03 04:20:34;;;;;;;19.73;12.40;;;;;;;6.25;100.00;95421.94;5025483;28;20281;-81
2022/12/03 04:23:00;;;;;;;22.97;12.20;;;;;;;6.34;100.00;95419.31;5027683;28;20667;-80
2022/12/03 04:30:56;;;;;;;19.53;12.40;;;;;;;6.29;100.00;95420.59;5027793;28;20583;-80
2022/12/03 04:36:08;;;;;;;19.57;12.07;;;;;;;6.21;100.00;95423.25;5028787;28;20276;-80
2022/12/03 04:38:35;;;;;;;25.23;13.83;;;;;;;6.28;100.00;95425.97;5027476;28;20201;-81
2022/12/03 04:41:06;;;;;;;17.63;11.23;;;;;;;6.27;100.00;95432.09;5030611;28;20201;-81
2022/12/03 04:44:31;;;;;;;19.40;12.20;;;;;;;6.06;100.00;95427.53;5025107;28;20200;-75
2022/12/03 04:46:21;;;;;;;18.07;11.90;;;;;;;6.07;100.00;95434.31;5021042;28;20210;-75
2022/12/03 04:48:48;;;;;;;18.27;11.37;;;;;;;5.94;100.00;95394.59;5031654;28;20226;-76
2022/12/03 04:51:15;;;;;;;18.87;11.93;;;;;;;6.11;100.00;95414.94;5031030;28;20201;-77
2022/12/03 04:53:42;;;;;;;18.23;11.77;;;;;;;6.13;100.00;95418.16;5028367;28;20206;-76
2022/12/03 04:56:10;;;;;;;17.47;11.07;;;;;;;6.10;100.00;95418.50;5026828;28;20198;-77
2022/12/03 04:58:36;;;;;;;17.80;11.30;;;;;;;6.14;100.00;95426.69;5027787;28;20218;-81
2022/12/03 05:01:03;;;;;;;17.23;10.73;;;;;;;6.15;100.00;95421.34;5034369;28;20209;-76
2022/12/03 05:03:30;;;;;;;20.27;11.17;;;;;;;6.14;100.00;95431.88;5026575;28;20245;-76
2022/12/03 05:05:57;;;;;;;16.60;10.40;;;;;;;6.07;100.00;95430.94;5026637;28;20216;-76
2022/12/03 05:08:24;;;;;;;17.17;10.83;;;;;;;5.98;100.00;95430.16;5028751;28;20229;-75
2022/12/03 05:10:50;;;;;;;17.50;10.53;;;;;;;5.96;100.00;95433.91;5029339;28;20556;-75
2022/12/03 05:13:18;;;;;;;18.97;10.80;;;;;;;5.85;100.00;95435.09;5026710;28;20221;-75
2022/12/03 05:15:45;;;;;;;18.83;11.13;;;;;;;5.92;100.00;95430.03;5025732;28;20209;-76
2022/12/03 05:18:12;;;;;;;16.57;10.73;;;;;;;5.91;100.00;95431.03;5027582;28;20197;-75
2022/12/03 05:20:40;;;;;;;16.43;10.47;;;;;;;5.92;100.00;95427.47;5026635;28;20206;-75
2022/12/03 05:23:08;;;;;;;16.50;9.97;;;;;;;5.95;100.00;95425.34;5027825;28;20195;-75
2022/12/03 05:25:35;;;;;;;19.50;10.60;;;;;;;5.99;100.00;95442.09;5026791;28;20213;-76
2022/12/03 05:28:02;;;;;;;17.63;10.70;;;;;;;5.94;100.00;95441.00;5028498;28;20698;-75
2022/12/03 05:30:30;;;;;;;14.90;9.53;;;;;;;5.97;100.00;95438.09;5027153;28;20213;-75
2022/12/03 05:32:57;;;;;;;17.93;10.07;;;;;;;5.87;100.00;95438.31;5028469;28;20232;-75
2022/12/03 05:35:24;;;;;;;13.17;9.03;;;;;;;5.78;100.00;95443.63;5027297;28;20653;-75
2022/12/03 05:37:50;;;;;;;15.70;8.90;;;;;;;5.80;100.00;95439.91;5027139;28;20325;-75
2022/12/03 05:40:18;;;;;;;15.03;9.77;;;;;;;5.76;100.00;95436.06;5026442;28;20607;-77
2022/12/03 05:42:52;;;;;;;14.67;9.80;;;;;;;5.85;100.00;95442.84;5028164;28;20201;-77
2022/12/03 05:45:19;;;;;;;15.87;9.27;;;;;;;5.88;100.00;95452.00;5028800;28;20246;-77
2022/12/03 05:47:48;;;;;;;16.07;9.73;;;;;;;5.92;100.00;95453.25;5026575;28;20208;-77
2022/12/03 05:50:15;;;;;;;12.50;8.37;;;;;;;5.82;100.00;95456.03;5026712;28;20218;-76
2022/12/03 05:52:42;;;;;;;14.10;9.30;;;;;;;5.84;100.00;95456.66;5026147;28;20218;-78
2022/12/03 05:55:09;;;;;;;13.43;9.27;;;;;;;5.89;100.00;95459.56;5032348;28;20198;-77
2022/12/03 05:57:36;;;;;;;15.10;9.33;;;;;;;5.92;100.00;95461.00;5029016;28;20678;-82
2022/12/03 06:00:05;;;;;;;16.13;9.33;;;;;;;5.95;100.00;95468.41;5031752;28;20201;-81
2022/12/03 06:02:33;;;;;;;18.87;8.77;;;;;;;5.99;100.00;95467.09;5033894;28;20473;-81
2022/12/03 06:05:01;;;;;;;12.67;8.30;;;;;;;6.06;100.00;95473.19;5035191;28;20206;-82
2022/12/03 06:07:27;;;;;;;14.27;8.43;;;;;;;6.12;100.00;95468.16;5031939;28;20205;-82
2022/12/03 06:09:54;;;;;;;13.50;8.87;;;;;;;6.07;100.00;95474.78;5028480;28;20739;-82
2022/12/03 06:12:21;;;;;;;18.80;8.83;;;;;;;6.05;100.00;95477.56;5033589;28;20206;-81
2022/12/03 06:14:48;;;;;;;13.33;8.87;;;;;;;6.07;100.00;95474.78;5034084;28;20201;-81
2022/12/03 06:17:15;;;;;;;13.90;8.53;;;;;;;6.12;100.00;95478.47;5036522;28;20617;-82
2022/12/03 06:19:41;;;;;;;12.50;8.40;;;;;;;6.13;100.00;95472.34;5029676;28;20692;-82
2022/12/03 06:22:09;;;;;;;13.17;8.47;;;;;;;6.13;100.00;95487.00;5029198;28;20688;-83
2022/12/03 06:24:36;;;;;;;12.57;8.33;;;;;;;6.10;100.00;95484.78;5031849;28;20210;-82
2022/12/03 06:27:03;;;;;;;12.50;7.77;;;;;;;6.13;100.00;95487.81;5028649;28;20198;-82
2022/12/03 06:29:30;;;;;;;12.83;8.33;;;;;;;6.20;100.00;95482.78;5037054;28;20321;-81
2022/12/03 06:31:57;;;;;;;12.90;8.70;;;;;;;6.17;100.00;95485.72;5036288;28;20214;-82
2022/12/03 06:34:24;;;;;;;16.57;9.20;;;;;;;6.17;100.00;95489.09;5031045;28;20533;-81
2022/12/03 06:36:51;;;;;;;14.27;9.13;;;;;;;6.17;100.00;95485.72;5030420;28;20217;-81
2022/12/03 06:39:19;;;;;;;15.90;9.13;;;;;;;6.13;100.00;95484.44;5034386;28;20187;-80
2022/12/03 06:41:46;;;;;;;12.07;8.37;;;;;;;6.13;100.00;95490.41;5032373;28;20205;-82
2022/12/03 06:44:13;;;;;;;14.37;9.20;;;;;;;6.06;100.00;95481.72;5026954;28;20193;-79
2022/12/03 06:46:39;;;;;;;12.00;8.80;;;;;;;6.11;100.00;95481.22;5027471;28;20221;-81
2022/12/03 06:49:08;;;;;;;13.47;8.90;;;;;;;6.14;100.00;95484.28;5035793;28;20600;-82
2022/12/03 06:51:34;;;;;;;15.27;9.50;;;;;;;6.20;100.00;95488.72;5035125;28;20270;-81
2022/12/03 06:54:01;;;;;;;14.53;8.97;;;;;;;6.11;100.00;95483.81;5030034;28;20205;-81
2022/12/03 06:56:30;;;;;;;13.60;8.40;;;;;;;6.12;100.00;95481.03;5028548;28;20672;-81
2022/12/03 06:58:57;;;;;;;12.03;8.60;;;;;;;6.15;100.00;95485.88;5032252;28;20307;-82
2022/12/03 07:01:24;;;;;;;11.60;8.30;;;;;;;6.21;100.00;95489.53;5036290;28;20258;-80
2022/12/03 07:03:50;;;;;;;14.30;8.40;;;;;;;6.25;100.00;95485.66;5026561;28;20201;-81
2022/12/03 07:06:18;;;;;;;14.27;7.63;;;;;;;6.24;100.00;95477.09;5027595;28;20206;-80
2022/12/03 07:08:45;;;;;;;10.00;7.03;;;;;;;6.29;100.00;95492.09;5029083;28;20281;-81
2022/12/03 07:13:54;;;;;;;10.63;7.33;;;;;;;6.35;100.00;95503.50;5030023;28;20596;-81
2022/12/03 07:16:21;;;;;;;10.77;7.30;;;;;;;6.25;100.00;95498.56;5034279;28;20213;-80
2022/12/03 07:18:48;;;;;;;15.43;8.90;;;;;;;6.21;100.00;95498.09;5028171;28;20217;-82
2022/12/03 07:21:15;;;;;;;11.93;8.47;;;;;;;6.34;100.00;95500.13;5027671;28;20220;-81
2022/12/03 07:23:41;;;;;;;11.47;7.93;;;;;;;6.34;100.00;95502.72;5031374;28;20210;-81
2022/12/03 07:26:08;;;;;;;10.53;7.60;;;;;;;6.29;100.00;95507.59;5031360;28;20209;-86
2022/12/03 07:28:35;;;;;;;15.60;8.53;;;;;;;6.16;100.00;95510.72;5028698;28;20199;-79
2022/12/03 07:31:03;;;;;;;14.47;8.93;;;;;;;6.18;100.00;95507.94;5035881;28;20218;-84
2022/12/03 07:33:30;;;;;;;11.20;8.00;;;;;;;6.22;100.00;95519.53;5040884;28;20328;-82
2022/12/03 07:35:57;;;;;;;11.23;8.20;;;;;;;6.20;100.00;95519.69;5030765;28;20213;-83
2022/12/03 07:38:24;;;;;;;11.97;8.00;;;;;;;6.17;100.00;95519.25;5028958;28;20206;-83
2022/12/03 07:40:51;;;;;;;10.20;7.47;;;;;;;6.20;100.00;95524.88;5031738;28;20194;-84
2022/12/03 07:43:17;;;;;;;12.73;8.60;;;;;;;6.17;100.00;95516.69;5034163;28;20216;-83
2022/12/03 07:45:44;;;;;;;10.60;7.77;;;;;;;6.28;100.00;95521.44;5033342;28;20648;-83
2022/12/03 07:48:12;;;;;;;12.77;8.60;;;;;;;6.25;100.00;95522.59;5037485;28;20214;-83
2022/12/03 07:50:39;;;;;;;12.07;8.20;;;;;;;6.15;100.00;95521.19;5031282;28;20701;-84
2022/12/03 07:53:07;;;;;;;15.23;8.90;;;;;;;6.07;100.00;95518.66;5030609;28;20221;-82
2022/12/03 07:55:34;;;;;;;12.33;8.50;;;;;;;6.15;100.00;95521.19;5027151;28;20209;-84
2022/12/03 07:58:01;;;;;;;11.13;7.87;;;;;;;6.23;100.00;95527.09;5036586;28;20297;-82
2022/12/03 08:00:28;;;;;;;17.27;8.87;;;;;;;6.34;100.00;95522.56;5031949;28;20221;-82
2022/12/03 08:02:54;;;;;;;15.37;8.77;;;;;;;6.36;100.00;95523.97;5038009;28;20220;-84
2022/12/03 08:05:23;;;;;;;13.23;9.10;;;;;;;6.43;100.00;95531.84;5028369;28;20218;-77
2022/12/03 08:07:49;;;;;;;13.47;7.80;;;;;;;6.36;100.00;95523.16;5026602;28;20201;-77
2022/12/03 08:10:16;;;;;;;12.27;8.00;;;;;;;6.38;100.00;95521.25;5019696;28;20736;-77
2022/12/03 08:12:44;;;;;;;15.83;8.30;;;;;;;6.43;100.00;95527.50;5023790;28;20274;-75
2022/12/03 08:15:13;;;;;;;11.47;7.83;;;;;;;6.42;100.00;95523.31;5026579;28;20664;-76
2022/12/03 08:17:41;;;;;;;15.67;8.80;;;;;;;6.53;100.00;95528.06;5026491;28;20210;-76
2022/12/03 08:20:13;;;;;;;13.67;9.07;;;;;;;6.57;100.00;95536.28;5022976;28;20289;-77
2022/12/03 08:22:43;;;;;;;14.27;8.43;;;;;;;6.65;100.00;95526.69;5029599;28;20587;-77
2022/12/03 08:25:17;;;;;;;14.73;8.47;;;;;;;6.64;100.00;95535.41;5029598;28;20213;-78
2022/12/03 08:27:43;;;;;;;11.03;7.50;;;;;;;6.75;100.00;95540.19;5028755;28;20198;-77
2022/12/03 08:30:13;;;;;;;9.67;6.93;;;;;;;6.72;100.00;95540.53;5028763;28;20242;-78
2022/12/03 08:32:41;;;;;;;10.93;6.57;;;;;;;6.68;100.00;95547.03;5027154;28;20705;-77
2022/12/03 08:35:12;;;;;;;9.53;6.50;;;;;;;6.67;100.00;95549.75;5037905;28;20214;-85
2022/12/03 08:37:39;;;;;;;11.30;7.00;;;;;;;6.63;100.00;95546.75;5036350;28;20583;-83
2022/12/03 08:40:20;;;;;;;9.87;7.07;;;;;;;6.63;100.00;95546.75;5040256;28;20210;-86
2022/12/03 08:42:47;;;;;;;8.80;6.43;;;;;;;6.62;100.00;95539.97;5039311;28;20225;-83
2022/12/03 08:45:38;;;;;;;10.37;7.30;;;;;;;6.67;100.00;95549.75;5036941;28;20201;-84
2022/12/03 08:48:25;;;;;;;10.83;6.83;;;;;;;6.52;100.00;95541.94;5038100;28;20256;-85
2022/12/03 08:50:53;;;;;;;13.17;7.13;;;;;;;6.67;100.00;95537.66;5031805;28;20301;-83
2022/12/03 08:53:29;;;;;;;10.43;7.00;;;;;;;6.64;100.00;95540.59;5035789;28;20200;-84
2022/12/03 08:55:58;;;;;;;10.63;7.17;;;;;;;6.69;100.00;95540.09;5040327;28;20207;-85
2022/12/03 08:58:33;;;;;;;13.63;7.00;;;;;;;6.65;100.00;95544.78;5043726;28;20198;-85
2022/12/03 09:01:12;;;;;;;12.07;7.70;;;;;;;6.72;100.00;95540.53;5041704;28;20200;-85
2022/12/03 09:03:46;;;;;;;11.70;8.07;;;;;;;6.82;100.00;95537.72;5036995;28;20198;-85
2022/12/03 09:06:13;;;;;;;14.83;8.10;;;;;;;6.94;100.00;95544.09;5042193;28;20194;-84
2022/12/03 09:08:39;;;;;;;10.40;7.23;;;;;;;7.02;100.00;95538.84;5033387;28;20198;-78
2022/12/03 09:11:08;;;;;;;12.57;8.07;;;;;;;7.11;100.00;95545.56;5031543;28;20578;-78
2022/12/03 09:13:34;;;;;;;17.77;8.60;;;;;;;7.24;100.00;95545.75;5027363;28;20723;-77
2022/12/03 09:16:01;;;;;;;13.20;8.60;;;;;;;7.31;100.00;95540.69;5028809;28;20195;-77
2022/12/03 09:18:28;;;;;;;12.00;8.10;;;;;;;7.36;100.00;95540.97;5030616;28;21223;-77
2022/12/03 09:20:55;;;;;;;13.60;8.03;;;;;;;7.37;100.00;95535.63;5028535;28;20199;-76
2022/12/03 09:23:22;;;;;;;15.40;8.70;;;;;;;7.37;100.00;95534.84;5025335;28;20286;-76
2022/12/03 09:25:49;;;;;;;13.40;8.70;;;;;;;7.48;100.00;95536.97;5024867;28;21682;-76
2022/12/03 09:28:17;;;;;;;11.87;8.53;;;;;;;7.54;100.00;95530.28;5031298;28;20206;-76
2022/12/03 09:30:44;;;;;;;13.13;8.77;;;;;;;7.55;100.00;95543.06;5027103;28;20230;-74
2022/12/03 09:33:11;;;;;;;14.60;8.60;;;;;;;7.67;100.00;95543.44;5024566;28;20223;-74
2022/12/03 09:35:38;;;;;;;15.53;9.13;;;;;;;7.69;100.00;95534.50;5023172;28;20210;-74
2022/12/03 09:38:04;;;;;;;11.63;8.27;;;;;;;7.68;100.00;95537.25;5028694;28;20245;-74
2022/12/03 09:40:31;;;;;;;16.23;9.47;;;;;;;7.70;100.00;95537.91;5026611;28;20195;-75
2022/12/03 09:42:58;;;;;;;13.03;8.73;;;;;;;7.71;100.00;95544.66;5029904;28;20290;-77
2022/12/03 09:45:32;;;;;;;14.80;9.00;;;;;;;7.56;100.00;95516.19;5027007;28;20207;-76
2022/12/03 09:48:01;;;;;;;16.10;8.40;;;;;;;7.69;100.00;95529.34;5031252;28;20181;-76
2022/12/03 09:50:31;;;;;;;15.33;9.40;;;;;;;7.61;100.00;95518.28;5025876;28;20277;-77
2022/12/03 09:53:02;;;;;;;18.73;9.17;;;;;;;7.67;100.00;95526.13;5029411;28;20210;-77
2022/12/03 09:55:29;;;;;;;18.67;9.80;;;;;;;7.71;100.00;95523.97;5029602;28;20202;-76
2022/12/03 09:58:00;;;;;;;17.97;9.33;;;;;;;7.70;100.00;95515.44;5027852;28;20209;-77
2022/12/03 10:00:30;;;;;;;17.70;9.83;;;;;;;7.74;100.00;95516.66;5025459;28;20199;-77
2022/12/03 10:03:01;;;;;;;14.70;10.13;;;;;;;7.77;100.00;95510.31;5027508;28;20202;-78
2022/12/03 10:05:29;;;;;;;16.60;9.73;;;;;;;7.72;100.00;95513.47;5029482;28;20203;-77
2022/12/03 10:08:05;;;;;;;15.67;9.93;;;;;;;7.69;100.00;95513.00;5030725;28;20213;-76
2022/12/03 10:10:32;;;;;;;17.33;10.07;;;;;;;7.79;100.00;95510.97;5028436;28;20226;-84
2022/12/03 10:12:59;;;;;;;13.50;9.40;;;;;;;7.84;100.00;95511.22;5034797;28;20198;-83
2022/12/03 10:15:28;;;;;;;14.93;9.87;;;;;;;7.88;100.00;95508.09;5042437;28;20256;-83
2022/12/03 10:17:55;;;;;;;18.30;10.00;;;;;;;7.90;100.00;95505.34;5033285;28;20220;-83
2022/12/03 10:20:24;;;;;;;16.10;9.80;;;;;;;7.88;100.00;95499.50;5032770;28;20199;-85
2022/12/03 10:22:50;;;;;;;14.67;9.73;;;;;;;7.86;100.00;95504.06;5036079;28;20583;-83
2022/12/03 10:25:19;;;;;;;17.33;9.73;;;;;;;7.84;100.00;95501.69;5033401;28;20210;-84
2022/12/03 10:27:57;;;;;;;16.23;9.80;;;;;;;7.90;100.00;95494.97;5035116;28;20236;-84
2022/12/03 10:30:27;;;;;;;16.57;9.67;;;;;;;7.83;100.00;95492.31;5034628;28;21017;-83
2022/12/03 10:32:57;;;;;;;15.43;10.17;;;;;;;7.87;100.00;95498.72;5038482;28;21003;-84
2022/12/03 10:35:26;;;;;;;19.13;10.03;;;;;;;7.94;100.00;95488.44;5034682;28;20213;-84
2022/12/03 10:38:01;;;;;;;17.37;10.83;;;;;;;7.99;100.00;95493.91;5035308;28;20209;-83
2022/12/03 10:40:30;;;;;;;15.97;10.07;;;;;;;8.01;100.00;95491.94;5034626;28;20656;-84
2022/12/03 10:43:15;;;;;;;20.67;9.83;;;;;;;8.05;100.00;95490.59;5031154;28;20203;-83
2022/12/03 10:45:43;;;;;;;15.77;9.77;;;;;;;7.96;100.00;95483.91;5038369;28;20203;-83
2022/12/03 10:48:16;;;;;;;14.97;9.53;;;;;;;8.00;100.00;95488.53;5037815;28;20199;-82
2022/12/03 10:50:51;;;;;;;18.50;9.73;;;;;;;7.98;100.00;95493.09;5037115;28;20222;-84
2022/12/03 10:53:20;;;;;;;17.03;10.27;;;;;;;7.84;100.00;95475.00;5031914;28;20217;-83
2022/12/03 10:55:49;;;;;;;13.83;9.63;;;;;;;7.95;100.00;95477.13;5032614;28;20207;-83
2022/12/03 10:58:21;;;;;;;17.80;9.90;;;;;;;8.02;100.00;95487.56;5036750;28;20202;-83
2022/12/03 11:00:49;;;;;;;19.17;10.13;;;;;;;7.95;100.00;95485.69;5034809;28;20199;-83
2022/12/03 11:03:21;;;;;;;23.73;10.50;;;;;;;7.81;100.00;95471.00;5035908;28;20218;-84
2022/12/03 11:05:51;;;;;;;21.63;11.13;;;;;;;7.96;100.00;95469.16;5043056;28;20229;-83
2022/12/03 11:08:20;;;;;;;25.20;12.97;;;;;;;7.79;100.00;95447.06;5039809;28;20206;-82
2022/12/03 11:10:56;;;;;;;20.20;11.43;;;;;;;7.81;100.00;95468.41;5034375;28;20285;-84
2022/12/03 11:13:49;;;;;;;17.70;10.13;;;;;;;7.89;100.00;95472.66;5035130;28;20206;-83
2022/12/03 11:17:06;;;;;;;17.17;10.10;;;;;;;7.95;100.00;95471.94;5029038;28;20210;-83
2022/12/03 11:19:49;;;;;;;17.43;9.60;;;;;;;7.98;100.00;95472.38;5031086;28;20210;-83
2022/12/03 11:22:40;;;;;;;16.37;9.93;;;;;;;8.02;100.00;95472.84;5037903;28;20227;-83
2022/12/03 11:25:44;;;;;;;17.03;9.47;;;;;;;8.09;100.00;95472.88;5031477;28;20236;-84
2022/12/03 11:28:35;;;;;;;16.17;9.87;;;;;;;8.13;100.00;95471.56;5030685;28;20217;-83
2022/12/03 11:31:07;;;;;;;16.83;9.70;;;;;;;8.17;100.00;95465.00;5034104;28;20222;-82
2022/12/03 11:33:36;;;;;;;16.30;10.40;;;;;;;8.16;100.00;95460.84;5038256;28;20236;-82
2022/12/03 11:36:15;;;;;;;16.67;10.77;;;;;;;8.06;100.00;95457.72;5029785;28;20688;-82
2022/12/03 11:38:54;;;;;;;19.37;10.53;;;;;;;8.13;100.00;95458.59;5034487;28;20725;-83
2022/12/03 11:41:28;;;;;;;14.50;10.00;;;;;;;8.21;100.00;95463.66;5038037;28;20199;-82
2022/12/03 11:44:17;;;;;;;21.60;10.70;;;;;;;8.23;100.00;95456.50;5034136;28;20252;-82
2022/12/03 11:46:46;;;;;;;16.53;9.77;;;;;;;8.12;100.00;95447.44;5031858;28;20285;-82
2022/12/03 11:49:29;;;;;;;14.67;9.73;;;;;;;8.13;100.00;95449.06;5031337;28;20199;-82